sensor_id;sensor_type;location;lat;lon;timestamp;P1;durP1;ratioP1;P2;durP2;ratioP2
73693;SDS011;61997;53.974;11.670;2024-01-15T00:01:28;14.90;;;7.72;;
73693;SDS011;61997;53.974;11.670;2024-01-15T00:03:54;12.90;;;6.97;;
73693;SDS011;61997;53.974;11.670;2024-01-15T00:06:19;16.20;;;8.93;;
73693;SDS011;61997;53.974;11.670;2024-01-15T00:08:45;12.65;;;7.72;;
73693;SDS011;61997;53.974;11.670;2024-01-15T00:11:11;15.45;;;7.97;;
73693;SDS011;61997;53.974;11.670;2024-01-15T00:13:36;15.90;;;8.57;;
73693;SDS011;61997;53.974;11.670;2024-01-15T00:16:02;18.83;;;9.35;;
73693;SDS011;61997;53.974;11.670;2024-01-15T00:18:27;16.83;;;9.85;;
73693;SDS011;61997;53.974;11.670;2024-01-15T00:20:53;18.02;;;10.05;;
73693;SDS011;61997;53.974;11.670;2024-01-15T00:23:18;22.20;;;11.20;;
73693;SDS011;61997;53.974;11.670;2024-01-15T00:25:43;18.40;;;10.65;;
73693;SDS011;61997;53.974;11.670;2024-01-15T00:28:09;18.20;;;10.25;;
73693;SDS011;61997;53.974;11.670;2024-01-15T00:30:34;18.08;;;10.77;;
73693;SDS011;61997;53.974;11.670;2024-01-15T00:33:00;20.20;;;11.05;;
73693;SDS011;61997;53.974;11.670;2024-01-15T00:35:25;22.80;;;11.98;;
73693;SDS011;61997;53.974;11.670;2024-01-15T00:37:50;20.35;;;12.98;;
73693;SDS011;61997;53.974;11.670;2024-01-15T00:40:16;17.80;;;10.25;;
73693;SDS011;61997;53.974;11.670;2024-01-15T00:42:41;20.42;;;10.85;;
73693;SDS011;61997;53.974;11.670;2024-01-15T00:45:06;21.70;;;11.40;;
73693;SDS011;61997;53.974;11.670;2024-01-15T00:47:33;19.58;;;11.45;;
73693;SDS011;61997;53.974;11.670;2024-01-15T00:49:58;21.92;;;12.15;;
73693;SDS011;61997;53.974;11.670;2024-01-15T00:52:24;21.45;;;11.93;;
73693;SDS011;61997;53.974;11.670;2024-01-15T00:54:49;21.35;;;11.50;;
73693;SDS011;61997;53.974;11.670;2024-01-15T00:57:14;20.92;;;10.73;;
73693;SDS011;61997;53.974;11.670;2024-01-15T00:59:40;18.58;;;10.73;;
73693;SDS011;61997;53.974;11.670;2024-01-15T01:02:05;23.42;;;12.60;;
73693;SDS011;61997;53.974;11.670;2024-01-15T01:04:30;24.48;;;11.75;;
73693;SDS011;61997;53.974;11.670;2024-01-15T01:06:56;20.77;;;11.90;;
73693;SDS011;61997;53.974;11.670;2024-01-15T01:09:21;22.30;;;11.45;;
73693;SDS011;61997;53.974;11.670;2024-01-15T01:11:46;27.33;;;11.60;;
73693;SDS011;61997;53.974;11.670;2024-01-15T01:14:12;22.48;;;11.77;;
73693;SDS011;61997;53.974;11.670;2024-01-15T01:16:37;18.17;;;10.38;;
73693;SDS011;61997;53.974;11.670;2024-01-15T01:19:04;19.55;;;10.38;;
73693;SDS011;61997;53.974;11.670;2024-01-15T01:21:33;18.40;;;10.30;;
73693;SDS011;61997;53.974;11.670;2024-01-15T01:23:58;20.50;;;11.05;;
73693;SDS011;61997;53.974;11.670;2024-01-15T01:26:24;20.85;;;11.80;;
73693;SDS011;61997;53.974;11.670;2024-01-15T01:28:49;18.15;;;9.35;;
73693;SDS011;61997;53.974;11.670;2024-01-15T01:31:15;23.38;;;10.32;;
73693;SDS011;61997;53.974;11.670;2024-01-15T01:33:41;21.00;;;9.20;;
73693;SDS011;61997;53.974;11.670;2024-01-15T01:36:07;19.13;;;9.90;;
73693;SDS011;61997;53.974;11.670;2024-01-15T01:38:34;17.83;;;9.23;;
73693;SDS011;61997;53.974;11.670;2024-01-15T01:40:59;21.52;;;10.27;;
73693;SDS011;61997;53.974;11.670;2024-01-15T01:43:24;15.50;;;9.93;;
73693;SDS011;61997;53.974;11.670;2024-01-15T01:45:50;15.55;;;9.98;;
73693;SDS011;61997;53.974;11.670;2024-01-15T01:48:15;17.45;;;8.98;;
73693;SDS011;61997;53.974;11.670;2024-01-15T01:50:40;16.70;;;8.98;;
73693;SDS011;61997;53.974;11.670;2024-01-15T01:53:06;15.15;;;7.88;;
73693;SDS011;61997;53.974;11.670;2024-01-15T01:55:31;19.63;;;9.07;;
73693;SDS011;61997;53.974;11.670;2024-01-15T01:57:59;17.25;;;9.05;;
73693;SDS011;61997;53.974;11.670;2024-01-15T02:00:25;17.67;;;9.20;;
73693;SDS011;61997;53.974;11.670;2024-01-15T02:02:50;16.63;;;8.57;;
73693;SDS011;61997;53.974;11.670;2024-01-15T02:05:18;15.55;;;8.15;;
73693;SDS011;61997;53.974;11.670;2024-01-15T02:07:43;15.93;;;7.50;;
73693;SDS011;61997;53.974;11.670;2024-01-15T02:10:09;16.70;;;7.05;;
73693;SDS011;61997;53.974;11.670;2024-01-15T02:12:34;14.90;;;7.18;;
73693;SDS011;61997;53.974;11.670;2024-01-15T02:15:00;17.67;;;8.35;;
73693;SDS011;61997;53.974;11.670;2024-01-15T02:17:26;12.48;;;7.32;;
73693;SDS011;61997;53.974;11.670;2024-01-15T02:19:51;13.70;;;7.05;;
73693;SDS011;61997;53.974;11.670;2024-01-15T02:22:16;16.60;;;8.10;;
73693;SDS011;61997;53.974;11.670;2024-01-15T02:24:42;13.00;;;6.25;;
73693;SDS011;61997;53.974;11.670;2024-01-15T02:27:07;12.30;;;6.78;;
73693;SDS011;61997;53.974;11.670;2024-01-15T02:29:32;12.68;;;6.30;;
73693;SDS011;61997;53.974;11.670;2024-01-15T02:31:58;11.48;;;6.97;;
73693;SDS011;61997;53.974;11.670;2024-01-15T02:34:23;10.13;;;5.70;;
73693;SDS011;61997;53.974;11.670;2024-01-15T02:36:48;12.40;;;7.07;;
73693;SDS011;61997;53.974;11.670;2024-01-15T02:39:14;10.30;;;5.32;;
73693;SDS011;61997;53.974;11.670;2024-01-15T02:41:39;12.23;;;5.70;;
73693;SDS011;61997;53.974;11.670;2024-01-15T02:44:04;13.35;;;5.90;;
73693;SDS011;61997;53.974;11.670;2024-01-15T02:46:30;12.15;;;5.72;;
73693;SDS011;61997;53.974;11.670;2024-01-15T02:48:55;9.82;;;5.95;;
73693;SDS011;61997;53.974;11.670;2024-01-15T02:51:20;8.18;;;5.53;;
73693;SDS011;61997;53.974;11.670;2024-01-15T02:53:46;9.77;;;5.07;;
73693;SDS011;61997;53.974;11.670;2024-01-15T02:56:11;9.32;;;5.20;;
73693;SDS011;61997;53.974;11.670;2024-01-15T02:58:37;12.05;;;5.47;;
73693;SDS011;61997;53.974;11.670;2024-01-15T03:01:02;10.98;;;5.22;;
73693;SDS011;61997;53.974;11.670;2024-01-15T03:03:28;11.50;;;5.93;;
73693;SDS011;61997;53.974;11.670;2024-01-15T03:05:53;8.65;;;4.68;;
73693;SDS011;61997;53.974;11.670;2024-01-15T03:08:18;10.35;;;4.97;;
73693;SDS011;61997;53.974;11.670;2024-01-15T03:10:44;10.90;;;4.95;;
73693;SDS011;61997;53.974;11.670;2024-01-15T03:13:09;11.45;;;5.00;;
73693;SDS011;61997;53.974;11.670;2024-01-15T03:15:34;8.15;;;4.35;;
73693;SDS011;61997;53.974;11.670;2024-01-15T03:18:00;9.27;;;4.22;;
73693;SDS011;61997;53.974;11.670;2024-01-15T03:20:25;9.02;;;4.28;;
73693;SDS011;61997;53.974;11.670;2024-01-15T03:22:51;9.15;;;4.15;;
73693;SDS011;61997;53.974;11.670;2024-01-15T03:25:17;7.97;;;4.00;;
73693;SDS011;61997;53.974;11.670;2024-01-15T03:27:42;10.52;;;5.00;;
73693;SDS011;61997;53.974;11.670;2024-01-15T03:30:07;8.02;;;4.15;;
73693;SDS011;61997;53.974;11.670;2024-01-15T03:32:33;9.13;;;4.47;;
73693;SDS011;61997;53.974;11.670;2024-01-15T03:34:58;9.88;;;3.85;;
73693;SDS011;61997;53.974;11.670;2024-01-15T03:37:24;9.18;;;4.20;;
73693;SDS011;61997;53.974;11.670;2024-01-15T03:39:49;8.20;;;4.22;;
73693;SDS011;61997;53.974;11.670;2024-01-15T03:42:14;7.82;;;4.05;;
73693;SDS011;61997;53.974;11.670;2024-01-15T03:44:40;7.20;;;3.72;;
73693;SDS011;61997;53.974;11.670;2024-01-15T03:47:05;9.80;;;3.88;;
73693;SDS011;61997;53.974;11.670;2024-01-15T03:49:30;6.93;;;3.03;;
73693;SDS011;61997;53.974;11.670;2024-01-15T03:51:56;8.98;;;3.60;;
73693;SDS011;61997;53.974;11.670;2024-01-15T03:54:21;5.35;;;3.60;;
73693;SDS011;61997;53.974;11.670;2024-01-15T03:56:47;6.35;;;3.10;;
73693;SDS011;61997;53.974;11.670;2024-01-15T03:59:12;6.63;;;3.75;;
73693;SDS011;61997;53.974;11.670;2024-01-15T04:01:37;8.38;;;3.33;;
73693;SDS011;61997;53.974;11.670;2024-01-15T04:04:03;6.45;;;3.80;;
73693;SDS011;61997;53.974;11.670;2024-01-15T04:06:28;8.10;;;2.78;;
73693;SDS011;61997;53.974;11.670;2024-01-15T04:08:54;5.72;;;2.78;;
73693;SDS011;61997;53.974;11.670;2024-01-15T04:11:19;5.32;;;3.50;;
73693;SDS011;61997;53.974;11.670;2024-01-15T04:13:44;6.50;;;3.33;;
73693;SDS011;61997;53.974;11.670;2024-01-15T04:16:10;8.25;;;3.30;;
73693;SDS011;61997;53.974;11.670;2024-01-15T04:18:35;7.13;;;3.17;;
73693;SDS011;61997;53.974;11.670;2024-01-15T04:21:00;7.22;;;3.30;;
73693;SDS011;61997;53.974;11.670;2024-01-15T04:23:26;4.53;;;2.60;;
73693;SDS011;61997;53.974;11.670;2024-01-15T04:25:51;5.22;;;2.60;;
73693;SDS011;61997;53.974;11.670;2024-01-15T04:28:17;4.47;;;2.70;;
73693;SDS011;61997;53.974;11.670;2024-01-15T04:30:42;5.93;;;2.70;;
73693;SDS011;61997;53.974;11.670;2024-01-15T04:33:08;7.18;;;3.00;;
73693;SDS011;61997;53.974;11.670;2024-01-15T04:35:33;5.80;;;2.22;;
73693;SDS011;61997;53.974;11.670;2024-01-15T04:37:59;4.40;;;2.45;;
73693;SDS011;61997;53.974;11.670;2024-01-15T04:40:24;4.72;;;2.17;;
73693;SDS011;61997;53.974;11.670;2024-01-15T04:42:52;5.50;;;2.35;;
73693;SDS011;61997;53.974;11.670;2024-01-15T04:45:18;4.10;;;2.10;;
73693;SDS011;61997;53.974;11.670;2024-01-15T04:47:44;5.75;;;2.40;;
73693;SDS011;61997;53.974;11.670;2024-01-15T04:50:10;4.72;;;2.42;;
73693;SDS011;61997;53.974;11.670;2024-01-15T04:52:35;6.50;;;2.55;;
73693;SDS011;61997;53.974;11.670;2024-01-15T04:55:00;6.35;;;3.13;;
73693;SDS011;61997;53.974;11.670;2024-01-15T04:57:26;6.15;;;2.38;;
73693;SDS011;61997;53.974;11.670;2024-01-15T04:59:51;4.75;;;3.00;;
73693;SDS011;61997;53.974;11.670;2024-01-15T05:02:16;5.75;;;2.25;;
73693;SDS011;61997;53.974;11.670;2024-01-15T05:04:42;5.57;;;2.05;;
73693;SDS011;61997;53.974;11.670;2024-01-15T05:07:07;5.05;;;2.30;;
73693;SDS011;61997;53.974;11.670;2024-01-15T05:09:33;8.52;;;2.30;;
73693;SDS011;61997;53.974;11.670;2024-01-15T05:11:58;5.00;;;1.67;;
73693;SDS011;61997;53.974;11.670;2024-01-15T05:14:24;4.40;;;1.90;;
73693;SDS011;61997;53.974;11.670;2024-01-15T05:16:49;4.88;;;2.38;;
73693;SDS011;61997;53.974;11.670;2024-01-15T05:19:15;6.10;;;2.00;;
73693;SDS011;61997;53.974;11.670;2024-01-15T05:21:40;4.97;;;2.33;;
73693;SDS011;61997;53.974;11.670;2024-01-15T05:24:06;4.43;;;2.08;;
73693;SDS011;61997;53.974;11.670;2024-01-15T05:26:31;3.72;;;1.60;;
73693;SDS011;61997;53.974;11.670;2024-01-15T05:28:56;6.28;;;2.03;;
73693;SDS011;61997;53.974;11.670;2024-01-15T05:31:22;6.65;;;1.92;;
73693;SDS011;61997;53.974;11.670;2024-01-15T05:33:47;4.35;;;1.42;;
73693;SDS011;61997;53.974;11.670;2024-01-15T05:36:13;3.85;;;1.80;;
73693;SDS011;61997;53.974;11.670;2024-01-15T05:38:38;3.50;;;1.80;;
73693;SDS011;61997;53.974;11.670;2024-01-15T05:41:04;4.07;;;1.42;;
73693;SDS011;61997;53.974;11.670;2024-01-15T05:43:30;3.92;;;1.40;;
73693;SDS011;61997;53.974;11.670;2024-01-15T05:45:55;6.78;;;1.90;;
73693;SDS011;61997;53.974;11.670;2024-01-15T05:48:21;3.33;;;1.40;;
73693;SDS011;61997;53.974;11.670;2024-01-15T05:50:46;6.57;;;1.98;;
73693;SDS011;61997;53.974;11.670;2024-01-15T05:53:11;4.68;;;1.92;;
73693;SDS011;61997;53.974;11.670;2024-01-15T05:55:37;4.70;;;1.48;;
73693;SDS011;61997;53.974;11.670;2024-01-15T05:58:03;5.00;;;1.73;;
73693;SDS011;61997;53.974;11.670;2024-01-15T06:00:29;5.30;;;1.13;;
73693;SDS011;61997;53.974;11.670;2024-01-15T06:02:55;4.85;;;1.35;;
73693;SDS011;61997;53.974;11.670;2024-01-15T06:05:20;2.83;;;1.00;;
73693;SDS011;61997;53.974;11.670;2024-01-15T06:07:45;2.72;;;1.30;;
73693;SDS011;61997;53.974;11.670;2024-01-15T06:10:11;2.55;;;1.10;;
73693;SDS011;61997;53.974;11.670;2024-01-15T06:12:36;3.97;;;1.50;;
73693;SDS011;61997;53.974;11.670;2024-01-15T06:15:02;2.38;;;1.60;;
73693;SDS011;61997;53.974;11.670;2024-01-15T06:17:27;5.53;;;1.30;;
73693;SDS011;61997;53.974;11.670;2024-01-15T06:19:53;6.50;;;1.58;;
73693;SDS011;61997;53.974;11.670;2024-01-15T06:22:18;2.08;;;0.98;;
73693;SDS011;61997;53.974;11.670;2024-01-15T06:24:43;2.40;;;1.13;;
73693;SDS011;61997;53.974;11.670;2024-01-15T06:27:09;3.63;;;1.17;;
73693;SDS011;61997;53.974;11.670;2024-01-15T06:29:36;3.40;;;1.23;;
73693;SDS011;61997;53.974;11.670;2024-01-15T06:32:02;3.50;;;1.30;;
73693;SDS011;61997;53.974;11.670;2024-01-15T06:34:28;5.88;;;1.08;;
73693;SDS011;61997;53.974;11.670;2024-01-15T06:36:53;3.55;;;0.90;;
73693;SDS011;61997;53.974;11.670;2024-01-15T06:39:19;5.30;;;1.60;;
73693;SDS011;61997;53.974;11.670;2024-01-15T06:41:44;4.28;;;1.45;;
73693;SDS011;61997;53.974;11.670;2024-01-15T06:44:10;3.83;;;1.33;;
73693;SDS011;61997;53.974;11.670;2024-01-15T06:46:36;2.88;;;1.52;;
73693;SDS011;61997;53.974;11.670;2024-01-15T06:49:01;1.90;;;1.42;;
73693;SDS011;61997;53.974;11.670;2024-01-15T06:51:26;4.32;;;1.30;;
73693;SDS011;61997;53.974;11.670;2024-01-15T06:53:52;3.08;;;0.82;;
73693;SDS011;61997;53.974;11.670;2024-01-15T06:56:17;4.22;;;0.90;;
73693;SDS011;61997;53.974;11.670;2024-01-15T06:58:42;3.42;;;1.05;;
73693;SDS011;61997;53.974;11.670;2024-01-15T07:01:08;3.08;;;1.00;;
73693;SDS011;61997;53.974;11.670;2024-01-15T07:03:33;2.67;;;1.27;;
73693;SDS011;61997;53.974;11.670;2024-01-15T07:05:59;4.28;;;1.30;;
73693;SDS011;61997;53.974;11.670;2024-01-15T07:08:24;1.40;;;0.70;;
73693;SDS011;61997;53.974;11.670;2024-01-15T07:10:49;1.92;;;0.80;;
73693;SDS011;61997;53.974;11.670;2024-01-15T07:13:15;2.65;;;0.75;;
73693;SDS011;61997;53.974;11.670;2024-01-15T07:15:40;2.95;;;0.80;;
73693;SDS011;61997;53.974;11.670;2024-01-15T07:18:05;3.42;;;0.85;;
73693;SDS011;61997;53.974;11.670;2024-01-15T07:20:31;2.17;;;0.70;;
73693;SDS011;61997;53.974;11.670;2024-01-15T07:22:56;4.00;;;1.17;;
73693;SDS011;61997;53.974;11.670;2024-01-15T07:25:22;2.13;;;1.10;;
73693;SDS011;61997;53.974;11.670;2024-01-15T07:27:47;2.35;;;0.70;;
73693;SDS011;61997;53.974;11.670;2024-01-15T07:30:12;1.17;;;0.50;;
73693;SDS011;61997;53.974;11.670;2024-01-15T07:32:38;2.85;;;0.88;;
73693;SDS011;61997;53.974;11.670;2024-01-15T07:35:04;1.83;;;0.70;;
73693;SDS011;61997;53.974;11.670;2024-01-15T07:37:30;5.13;;;0.90;;
73693;SDS011;61997;53.974;11.670;2024-01-15T07:39:55;1.60;;;1.27;;
73693;SDS011;61997;53.974;11.670;2024-01-15T07:42:21;2.63;;;0.90;;
73693;SDS011;61997;53.974;11.670;2024-01-15T07:44:46;2.17;;;0.82;;
73693;SDS011;61997;53.974;11.670;2024-01-15T07:47:12;1.20;;;0.35;;
73693;SDS011;61997;53.974;11.670;2024-01-15T07:49:37;1.65;;;0.80;;
73693;SDS011;61997;53.974;11.670;2024-01-15T07:52:03;2.53;;;0.60;;
73693;SDS011;61997;53.974;11.670;2024-01-15T07:54:30;1.95;;;0.80;;
73693;SDS011;61997;53.974;11.670;2024-01-15T07:56:56;2.22;;;0.70;;
73693;SDS011;61997;53.974;11.670;2024-01-15T07:59:22;2.50;;;0.65;;
73693;SDS011;61997;53.974;11.670;2024-01-15T08:01:48;1.63;;;0.70;;
73693;SDS011;61997;53.974;11.670;2024-01-15T08:04:13;2.88;;;0.73;;
73693;SDS011;61997;53.974;11.670;2024-01-15T08:06:39;0.88;;;0.45;;
73693;SDS011;61997;53.974;11.670;2024-01-15T08:09:04;4.13;;;1.13;;
73693;SDS011;61997;53.974;11.670;2024-01-15T08:11:30;2.20;;;0.80;;
73693;SDS011;61997;53.974;11.670;2024-01-15T08:13:55;1.00;;;0.43;;
73693;SDS011;61997;53.974;11.670;2024-01-15T08:16:21;2.47;;;0.90;;
73693;SDS011;61997;53.974;11.670;2024-01-15T08:18:46;1.08;;;0.50;;
73693;SDS011;61997;53.974;11.670;2024-01-15T08:21:12;1.02;;;0.50;;
73693;SDS011;61997;53.974;11.670;2024-01-15T08:23:38;2.00;;;1.33;;
73693;SDS011;61997;53.974;11.670;2024-01-15T08:26:03;2.72;;;0.57;;
73693;SDS011;61997;53.974;11.670;2024-01-15T08:28:29;1.88;;;0.88;;
73693;SDS011;61997;53.974;11.670;2024-01-15T08:30:55;1.83;;;0.98;;
73693;SDS011;61997;53.974;11.670;2024-01-15T08:33:20;1.15;;;0.70;;
73693;SDS011;61997;53.974;11.670;2024-01-15T08:35:46;0.93;;;0.40;;
73693;SDS011;61997;53.974;11.670;2024-01-15T08:38:11;0.68;;;0.30;;
73693;SDS011;61997;53.974;11.670;2024-01-15T08:40:36;0.68;;;0.30;;
73693;SDS011;61997;53.974;11.670;2024-01-15T08:43:02;2.38;;;0.40;;
73693;SDS011;61997;53.974;11.670;2024-01-15T08:45:27;1.67;;;0.40;;
73693;SDS011;61997;53.974;11.670;2024-01-15T08:47:52;0.93;;;0.30;;
73693;SDS011;61997;53.974;11.670;2024-01-15T08:50:18;1.90;;;0.50;;
73693;SDS011;61997;53.974;11.670;2024-01-15T08:52:43;2.97;;;0.65;;
73693;SDS011;61997;53.974;11.670;2024-01-15T08:55:08;1.92;;;0.30;;
73693;SDS011;61997;53.974;11.670;2024-01-15T08:57:34;2.53;;;0.50;;
73693;SDS011;61997;53.974;11.670;2024-01-15T08:59:59;2.17;;;0.40;;
73693;SDS011;61997;53.974;11.670;2024-01-15T09:02:25;0.63;;;0.30;;
73693;SDS011;61997;53.974;11.670;2024-01-15T09:04:50;1.02;;;0.40;;
73693;SDS011;61997;53.974;11.670;2024-01-15T09:07:16;1.42;;;0.40;;
73693;SDS011;61997;53.974;11.670;2024-01-15T09:09:42;0.30;;;0.30;;
73693;SDS011;61997;53.974;11.670;2024-01-15T09:12:07;0.35;;;0.25;;
73693;SDS011;61997;53.974;11.670;2024-01-15T09:14:33;0.93;;;0.45;;
73693;SDS011;61997;53.974;11.670;2024-01-15T09:17:00;2.05;;;0.63;;
73693;SDS011;61997;53.974;11.670;2024-01-15T09:19:26;0.98;;;0.50;;
73693;SDS011;61997;53.974;11.670;2024-01-15T09:21:52;1.45;;;0.50;;
73693;SDS011;61997;53.974;11.670;2024-01-15T09:24:18;2.38;;;0.57;;
73693;SDS011;61997;53.974;11.670;2024-01-15T09:26:43;1.95;;;0.43;;
73693;SDS011;61997;53.974;11.670;2024-01-15T09:29:08;0.88;;;0.20;;
73693;SDS011;61997;53.974;11.670;2024-01-15T09:31:35;1.80;;;0.70;;
73693;SDS011;61997;53.974;11.670;2024-01-15T09:34:00;0.95;;;0.30;;
73693;SDS011;61997;53.974;11.670;2024-01-15T09:36:27;2.05;;;0.40;;
73693;SDS011;61997;53.974;11.670;2024-01-15T09:38:53;1.65;;;1.10;;
73693;SDS011;61997;53.974;11.670;2024-01-15T09:41:20;0.43;;;0.20;;
73693;SDS011;61997;53.974;11.670;2024-01-15T09:43:46;3.22;;;0.70;;
73693;SDS011;61997;53.974;11.670;2024-01-15T09:46:11;2.10;;;0.55;;
73693;SDS011;61997;53.974;11.670;2024-01-15T09:48:36;1.52;;;0.40;;
73693;SDS011;61997;53.974;11.670;2024-01-15T09:51:03;2.28;;;0.90;;
73693;SDS011;61997;53.974;11.670;2024-01-15T09:53:29;0.77;;;0.75;;
73693;SDS011;61997;53.974;11.670;2024-01-15T09:55:55;1.05;;;0.47;;
73693;SDS011;61997;53.974;11.670;2024-01-15T09:58:20;0.55;;;0.40;;
73693;SDS011;61997;53.974;11.670;2024-01-15T10:00:47;0.63;;;0.30;;
73693;SDS011;61997;53.974;11.670;2024-01-15T10:03:15;2.28;;;0.50;;
73693;SDS011;61997;53.974;11.670;2024-01-15T10:05:40;1.33;;;0.35;;
73693;SDS011;61997;53.974;11.670;2024-01-15T10:08:05;0.90;;;0.40;;
73693;SDS011;61997;53.974;11.670;2024-01-15T10:10:31;1.52;;;0.47;;
73693;SDS011;61997;53.974;11.670;2024-01-15T10:12:58;1.15;;;0.17;;
73693;SDS011;61997;53.974;11.670;2024-01-15T10:15:23;1.00;;;0.40;;
73693;SDS011;61997;53.974;11.670;2024-01-15T10:17:50;0.22;;;0.20;;
73693;SDS011;61997;53.974;11.670;2024-01-15T10:20:15;1.92;;;0.45;;
73693;SDS011;61997;53.974;11.670;2024-01-15T10:22:41;1.50;;;0.30;;
73693;SDS011;61997;53.974;11.670;2024-01-15T10:25:11;0.75;;;0.30;;
73693;SDS011;61997;53.974;11.670;2024-01-15T10:27:37;1.83;;;0.55;;
73693;SDS011;61997;53.974;11.670;2024-01-15T10:30:03;1.42;;;0.88;;
73693;SDS011;61997;53.974;11.670;2024-01-15T10:32:29;0.28;;;0.20;;
73693;SDS011;61997;53.974;11.670;2024-01-15T10:34:54;2.22;;;0.45;;
73693;SDS011;61997;53.974;11.670;2024-01-15T10:37:19;0.82;;;0.30;;
73693;SDS011;61997;53.974;11.670;2024-01-15T10:39:46;1.38;;;0.22;;
73693;SDS011;61997;53.974;11.670;2024-01-15T10:42:11;1.55;;;0.40;;
73693;SDS011;61997;53.974;11.670;2024-01-15T10:44:37;2.90;;;0.47;;
73693;SDS011;61997;53.974;11.670;2024-01-15T10:47:02;0.20;;;0.20;;
73693;SDS011;61997;53.974;11.670;2024-01-15T10:49:29;1.02;;;0.30;;
73693;SDS011;61997;53.974;11.670;2024-01-15T10:51:55;3.05;;;0.73;;
73693;SDS011;61997;53.974;11.670;2024-01-15T10:54:21;0.80;;;0.50;;
73693;SDS011;61997;53.974;11.670;2024-01-15T10:56:48;0.70;;;0.40;;
73693;SDS011;61997;53.974;11.670;2024-01-15T10:59:15;0.65;;;0.30;;
73693;SDS011;61997;53.974;11.670;2024-01-15T11:01:41;1.23;;;0.38;;
73693;SDS011;61997;53.974;11.670;2024-01-15T11:04:07;0.70;;;0.30;;
73693;SDS011;61997;53.974;11.670;2024-01-15T11:06:45;1.00;;;0.30;;
73693;SDS011;61997;53.974;11.670;2024-01-15T11:09:13;0.82;;;0.40;;
73693;SDS011;61997;53.974;11.670;2024-01-15T11:11:40;0.70;;;0.40;;
73693;SDS011;61997;53.974;11.670;2024-01-15T11:14:09;0.98;;;0.45;;
73693;SDS011;61997;53.974;11.670;2024-01-15T11:16:53;1.65;;;0.50;;
73693;SDS011;61997;53.974;11.670;2024-01-15T11:19:24;0.70;;;0.40;;
73693;SDS011;61997;53.974;11.670;2024-01-15T11:21:50;3.30;;;0.50;;
73693;SDS011;61997;53.974;11.670;2024-01-15T11:24:37;0.75;;;0.52;;
73693;SDS011;61997;53.974;11.670;2024-01-15T11:27:05;2.03;;;0.70;;
73693;SDS011;61997;53.974;11.670;2024-01-15T11:29:35;2.33;;;0.57;;
73693;SDS011;61997;53.974;11.670;2024-01-15T11:32:08;0.35;;;0.30;;
73693;SDS011;61997;53.974;11.670;2024-01-15T11:37:26;2.05;;;0.93;;
73693;SDS011;61997;53.974;11.670;2024-01-15T11:39:52;1.75;;;0.68;;
73693;SDS011;61997;53.974;11.670;2024-01-15T11:42:19;2.03;;;0.60;;
73693;SDS011;61997;53.974;11.670;2024-01-15T11:44:45;0.50;;;0.50;;
73693;SDS011;61997;53.974;11.670;2024-01-15T11:47:11;2.00;;;0.70;;
73693;SDS011;61997;53.974;11.670;2024-01-15T11:52:19;1.98;;;0.80;;
73693;SDS011;61997;53.974;11.670;2024-01-15T11:54:55;1.35;;;0.57;;
73693;SDS011;61997;53.974;11.670;2024-01-15T11:57:26;1.50;;;0.80;;
73693;SDS011;61997;53.974;11.670;2024-01-15T12:00:05;2.30;;;0.80;;
73693;SDS011;61997;53.974;11.670;2024-01-15T12:02:33;1.42;;;0.60;;
73693;SDS011;61997;53.974;11.670;2024-01-15T12:04:58;1.60;;;1.00;;
73693;SDS011;61997;53.974;11.670;2024-01-15T12:07:23;2.28;;;1.05;;
73693;SDS011;61997;53.974;11.670;2024-01-15T12:09:49;2.83;;;1.00;;
73693;SDS011;61997;53.974;11.670;2024-01-15T12:12:16;4.00;;;1.33;;
73693;SDS011;61997;53.974;11.670;2024-01-15T12:15:01;1.70;;;1.00;;
73693;SDS011;61997;53.974;11.670;2024-01-15T12:17:27;2.75;;;1.10;;
73693;SDS011;61997;53.974;11.670;2024-01-15T12:19:52;4.20;;;1.55;;
73693;SDS011;61997;53.974;11.670;2024-01-15T12:22:17;1.70;;;1.10;;
73693;SDS011;61997;53.974;11.670;2024-01-15T12:24:43;3.50;;;1.45;;
73693;SDS011;61997;53.974;11.670;2024-01-15T12:27:08;2.58;;;1.20;;
73693;SDS011;61997;53.974;11.670;2024-01-15T12:29:34;4.50;;;1.73;;
73693;SDS011;61997;53.974;11.670;2024-01-15T12:31:59;2.42;;;1.60;;
73693;SDS011;61997;53.974;11.670;2024-01-15T12:34:28;5.63;;;1.85;;
73693;SDS011;61997;53.974;11.670;2024-01-15T12:36:54;4.70;;;2.00;;
73693;SDS011;61997;53.974;11.670;2024-01-15T12:39:22;3.95;;;1.73;;
73693;SDS011;61997;53.974;11.670;2024-01-15T12:41:47;3.35;;;1.88;;
73693;SDS011;61997;53.974;11.670;2024-01-15T12:44:13;3.70;;;2.22;;
73693;SDS011;61997;53.974;11.670;2024-01-15T12:46:38;4.63;;;1.95;;
73693;SDS011;61997;53.974;11.670;2024-01-15T12:49:04;7.00;;;2.63;;
73693;SDS011;61997;53.974;11.670;2024-01-15T12:51:29;5.00;;;2.15;;
73693;SDS011;61997;53.974;11.670;2024-01-15T12:53:55;4.70;;;2.63;;
73693;SDS011;61997;53.974;11.670;2024-01-15T12:56:20;5.85;;;3.28;;
73693;SDS011;61997;53.974;11.670;2024-01-15T12:58:45;7.18;;;2.90;;
73693;SDS011;61997;53.974;11.670;2024-01-15T13:01:12;6.88;;;3.28;;
73693;SDS011;61997;53.974;11.670;2024-01-15T13:03:37;6.40;;;2.60;;
73693;SDS011;61997;53.974;11.670;2024-01-15T13:06:02;6.13;;;2.65;;
73693;SDS011;61997;53.974;11.670;2024-01-15T13:08:28;6.50;;;3.20;;
73693;SDS011;61997;53.974;11.670;2024-01-15T13:10:54;6.03;;;3.03;;
73693;SDS011;61997;53.974;11.670;2024-01-15T13:13:22;8.55;;;3.78;;
73693;SDS011;61997;53.974;11.670;2024-01-15T13:15:47;5.43;;;3.28;;
73693;SDS011;61997;53.974;11.670;2024-01-15T13:18:14;9.05;;;3.90;;
73693;SDS011;61997;53.974;11.670;2024-01-15T13:20:39;7.43;;;3.30;;
73693;SDS011;61997;53.974;11.670;2024-01-15T13:23:05;7.47;;;3.30;;
73693;SDS011;61997;53.974;11.670;2024-01-15T13:25:30;9.05;;;3.65;;
73693;SDS011;61997;53.974;11.670;2024-01-15T13:27:56;8.10;;;4.70;;
73693;SDS011;61997;53.974;11.670;2024-01-15T13:30:21;10.45;;;5.28;;
73693;SDS011;61997;53.974;11.670;2024-01-15T13:32:47;12.32;;;5.72;;
73693;SDS011;61997;53.974;11.670;2024-01-15T13:35:12;10.88;;;5.65;;
73693;SDS011;61997;53.974;11.670;2024-01-15T13:37:38;10.77;;;5.82;;
73693;SDS011;61997;53.974;11.670;2024-01-15T13:40:06;10.43;;;6.05;;
73693;SDS011;61997;53.974;11.670;2024-01-15T13:42:34;15.90;;;7.47;;
73693;SDS011;61997;53.974;11.670;2024-01-15T13:44:59;13.38;;;7.22;;
73693;SDS011;61997;53.974;11.670;2024-01-15T13:47:24;14.15;;;7.13;;
73693;SDS011;61997;53.974;11.670;2024-01-15T13:49:50;14.00;;;7.63;;
73693;SDS011;61997;53.974;11.670;2024-01-15T13:52:15;13.02;;;7.63;;
73693;SDS011;61997;53.974;11.670;2024-01-15T13:54:40;17.65;;;8.35;;
73693;SDS011;61997;53.974;11.670;2024-01-15T13:57:06;13.75;;;8.13;;
73693;SDS011;61997;53.974;11.670;2024-01-15T13:59:32;14.57;;;7.72;;
73693;SDS011;61997;53.974;11.670;2024-01-15T14:01:57;19.02;;;9.48;;
73693;SDS011;61997;53.974;11.670;2024-01-15T14:04:23;18.35;;;8.52;;
73693;SDS011;61997;53.974;11.670;2024-01-15T14:06:48;15.65;;;7.53;;
73693;SDS011;61997;53.974;11.670;2024-01-15T14:09:13;18.23;;;9.77;;
73693;SDS011;61997;53.974;11.670;2024-01-15T14:11:39;16.08;;;9.43;;
73693;SDS011;61997;53.974;11.670;2024-01-15T14:14:05;20.80;;;9.75;;
73693;SDS011;61997;53.974;11.670;2024-01-15T14:16:30;16.08;;;9.82;;
73693;SDS011;61997;53.974;11.670;2024-01-15T14:18:55;20.08;;;9.48;;
73693;SDS011;61997;53.974;11.670;2024-01-15T14:21:21;15.20;;;9.10;;
73693;SDS011;61997;53.974;11.670;2024-01-15T14:23:46;19.90;;;9.63;;
73693;SDS011;61997;53.974;11.670;2024-01-15T14:26:12;20.55;;;10.48;;
73693;SDS011;61997;53.974;11.670;2024-01-15T14:28:37;17.98;;;9.35;;